createdAt,value
2022-11-10T00:00:07.113Z,100.00
2022-11-10T00:02:53.717Z,100.00
2022-11-10T00:05:40.637Z,100.00
2022-11-10T00:08:27.027Z,100.00
2022-11-10T00:11:13.711Z,100.00
2022-11-10T00:14:17.450Z,100.00
2022-11-10T00:17:05.678Z,100.00
2022-11-10T00:19:52.576Z,100.00
2022-11-10T00:22:40.759Z,100.00
2022-11-10T00:25:28.246Z,100.00
2022-11-10T00:28:14.675Z,100.00
2022-11-10T00:31:06.108Z,100.00
2022-11-10T00:33:54.270Z,100.00
2022-11-10T00:36:41.138Z,100.00
2022-11-10T00:39:27.479Z,100.00
2022-11-10T00:42:14.045Z,100.00
2022-11-10T00:45:00.343Z,100.00
2022-11-10T00:47:46.988Z,100.00
2022-11-10T00:50:35.232Z,100.00
2022-11-10T00:53:21.902Z,100.00
2022-11-10T00:56:09.197Z,100.00
2022-11-10T00:58:56.158Z,100.00
2022-11-10T01:01:42.827Z,100.00
2022-11-10T01:04:29.262Z,100.00
2022-11-10T01:07:17.231Z,100.00
2022-11-10T01:10:04.317Z,100.00
2022-11-10T01:12:50.788Z,100.00
2022-11-10T01:15:41.011Z,100.00
2022-11-10T01:18:27.562Z,100.00
2022-11-10T01:21:14.466Z,100.00
2022-11-10T01:24:02.432Z,100.00
2022-11-10T01:26:49.246Z,100.00
2022-11-10T01:29:35.867Z,100.00
2022-11-10T01:32:22.203Z,100.00
2022-11-10T01:35:09.461Z,100.00
2022-11-10T01:37:56.357Z,100.00
2022-11-10T01:40:45.562Z,100.00
2022-11-10T01:43:32.866Z,100.00
2022-11-10T01:46:19.574Z,100.00
2022-11-10T01:49:06.845Z,100.00
2022-11-10T01:51:58.108Z,100.00
2022-11-10T01:54:48.239Z,100.00
2022-11-10T01:57:37.057Z,100.00
2022-11-10T02:00:24.570Z,100.00
2022-11-10T02:03:16.135Z,100.00
2022-11-10T02:06:02.855Z,100.00
2022-11-10T02:08:51.412Z,100.00
2022-11-10T02:11:39.655Z,100.00
2022-11-10T02:14:28.040Z,100.00
2022-11-10T02:17:15.312Z,100.00
2022-11-10T02:20:04.836Z,100.00
2022-11-10T02:22:52.756Z,100.00
2022-11-10T02:25:39.846Z,100.00
2022-11-10T02:28:27.683Z,100.00
2022-11-10T02:31:14.534Z,100.00
2022-11-10T02:34:00.835Z,100.00
2022-11-10T02:36:47.415Z,100.00
2022-11-10T02:39:35.070Z,100.00
2022-11-10T02:42:21.691Z,100.00
2022-11-10T02:45:09.363Z,100.00
2022-11-10T02:47:55.639Z,100.00
2022-11-10T02:50:42.591Z,100.00
2022-11-10T02:53:29.416Z,100.00
2022-11-10T02:56:17.433Z,100.00
2022-11-10T02:59:04.880Z,100.00
2022-11-10T03:01:51.447Z,100.00
2022-11-10T03:04:37.716Z,100.00
2022-11-10T03:07:24.017Z,100.00
2022-11-10T03:10:11.357Z,100.00
2022-11-10T03:13:00.482Z,100.00
2022-11-10T03:15:48.706Z,100.00
2022-11-10T03:18:35.277Z,100.00
2022-11-10T03:21:21.959Z,100.00
2022-11-10T03:24:08.429Z,100.00
2022-11-10T03:26:54.816Z,100.00
2022-11-10T03:29:42.449Z,100.00
2022-11-10T03:32:28.809Z,100.00
2022-11-10T03:35:15.288Z,100.00
2022-11-10T03:38:02.127Z,100.00
2022-11-10T03:41:17.622Z,100.00
2022-11-10T03:43:58.435Z,100.00
2022-11-10T03:46:51.266Z,100.00
2022-11-10T03:49:38.144Z,100.00
2022-11-10T03:52:24.446Z,100.00
2022-11-10T03:55:12.914Z,100.00
2022-11-10T03:58:03.231Z,100.00
2022-11-10T04:00:49.745Z,100.00
2022-11-10T04:03:37.848Z,100.00
2022-11-10T04:06:42.182Z,100.00
2022-11-10T04:09:28.654Z,100.00
2022-11-10T04:12:32.951Z,100.00
2022-11-10T04:15:37.605Z,100.00
2022-11-10T04:18:26.626Z,100.00
2022-11-10T04:21:15.028Z,100.00
2022-11-10T04:24:01.640Z,100.00
2022-11-10T04:26:48.701Z,100.00
2022-11-10T04:29:35.640Z,100.00
2022-11-10T04:32:21.906Z,100.00
2022-11-10T04:35:09.048Z,100.00
2022-11-10T04:37:57.226Z,100.00
2022-11-10T04:40:44.067Z,100.00
2022-11-10T04:43:30.939Z,100.00
2022-11-10T04:46:23.438Z,100.00
2022-11-10T04:49:09.897Z,100.00
2022-11-10T04:51:56.322Z,100.00
2022-11-10T04:54:44.059Z,100.00
2022-11-10T04:57:31.005Z,100.00
2022-11-10T05:00:18.222Z,100.00
2022-11-10T05:03:08.341Z,100.00
2022-11-10T05:05:54.767Z,100.00
2022-11-10T05:08:42.256Z,100.00
2022-11-10T05:11:30.375Z,100.00
2022-11-10T05:14:16.927Z,100.00
2022-11-10T05:17:03.304Z,100.00
2022-11-10T05:19:50.217Z,100.00
2022-11-10T05:22:36.763Z,100.00
2022-11-10T05:25:23.443Z,100.00
2022-11-10T05:28:13.089Z,100.00
2022-11-10T05:30:59.887Z,100.00
2022-11-10T05:33:46.274Z,100.00
2022-11-10T05:36:32.869Z,100.00
2022-11-10T05:39:19.308Z,100.00
2022-11-10T05:42:05.731Z,100.00
2022-11-10T05:44:53.738Z,100.00
2022-11-10T05:47:40.923Z,100.00
2022-11-10T05:50:27.440Z,100.00
2022-11-10T05:53:13.840Z,100.00
2022-11-10T05:56:01.062Z,100.00
2022-11-10T05:58:47.561Z,100.00
2022-11-10T06:01:35.385Z,100.00
2022-11-10T06:04:22.275Z,100.00
2022-11-10T06:07:09.306Z,100.00
2022-11-10T06:09:55.815Z,100.00
2022-11-10T06:12:42.360Z,100.00
2022-11-10T06:15:29.692Z,100.00
2022-11-10T06:18:17.905Z,100.00
2022-11-10T06:21:04.610Z,100.00
2022-11-10T06:23:51.266Z,100.00
2022-11-10T06:26:37.361Z,100.00
2022-11-10T06:29:26.769Z,100.00
2022-11-10T06:32:13.557Z,100.00
2022-11-10T06:35:01.478Z,100.00
2022-11-10T06:37:48.228Z,100.00
2022-11-10T06:40:35.475Z,100.00
2022-11-10T06:43:22.623Z,100.00
2022-11-10T06:46:09.079Z,100.00
2022-11-10T06:48:55.634Z,100.00
2022-11-10T06:51:43.481Z,100.00
2022-11-10T06:54:29.995Z,100.00
2022-11-10T06:57:17.004Z,100.00
2022-11-10T07:00:04.195Z,100.00
2022-11-10T07:02:59.932Z,100.00
2022-11-10T07:05:46.283Z,100.00
2022-11-10T07:08:34.300Z,100.00
2022-11-10T07:11:20.944Z,100.00
2022-11-10T07:14:07.640Z,100.00
2022-11-10T07:16:54.203Z,100.00
2022-11-10T07:19:40.825Z,100.00
2022-11-10T07:22:27.635Z,100.00
2022-11-10T07:25:15.582Z,100.00
2022-11-10T07:28:03.853Z,100.00
2022-11-10T07:30:50.644Z,100.00
2022-11-10T07:33:37.494Z,100.00
2022-11-10T07:36:23.954Z,100.00
2022-11-10T07:39:14.745Z,100.00
2022-11-10T07:42:02.487Z,100.00
2022-11-10T07:44:49.079Z,100.00
2022-11-10T07:47:35.578Z,100.00
2022-11-10T07:50:22.371Z,100.00
2022-11-10T07:53:11.931Z,100.00
2022-11-10T07:55:59.609Z,100.00
2022-11-10T07:58:48.577Z,100.00
2022-11-10T08:01:35.179Z,100.00
2022-11-10T08:04:22.040Z,100.00
2022-11-10T08:07:08.834Z,100.00
2022-11-10T08:09:55.766Z,100.00
2022-11-10T08:12:42.559Z,100.00
2022-11-10T08:15:31.869Z,100.00
2022-11-10T08:18:20.293Z,100.00
2022-11-10T08:21:07.461Z,100.00
2022-11-10T08:23:54.437Z,100.00
2022-11-10T08:26:41.584Z,100.00
2022-11-10T08:29:28.293Z,100.00
2022-11-10T08:32:16.577Z,100.00
2022-11-10T08:35:03.654Z,100.00
2022-11-10T08:37:50.303Z,100.00
2022-11-10T08:40:36.987Z,100.00
2022-11-10T08:43:23.892Z,100.00
2022-11-10T08:46:10.998Z,100.00
2022-11-10T08:48:58.892Z,100.00
2022-11-10T08:51:45.738Z,100.00
2022-11-10T08:54:32.324Z,100.00
2022-11-10T08:57:18.886Z,100.00
2022-11-10T09:00:06.767Z,100.00
2022-11-10T09:02:53.474Z,100.00
2022-11-10T09:05:42.388Z,100.00
2022-11-10T09:08:29.141Z,100.00
2022-11-10T09:11:15.789Z,100.00
2022-11-10T09:14:02.401Z,100.00
2022-11-10T09:16:48.565Z,100.00
2022-11-10T09:19:35.344Z,100.00
2022-11-10T09:22:23.206Z,98.66
2022-11-10T09:25:10.451Z,99.33
2022-11-10T09:27:57.304Z,99.45
2022-11-10T09:30:44.134Z,99.89
2022-11-10T09:33:32.907Z,97.61
2022-11-10T09:36:19.548Z,97.75
2022-11-10T09:39:07.743Z,98.42
2022-11-10T09:41:54.466Z,96.77
2022-11-10T09:44:56.188Z,95.74
2022-11-10T09:47:58.127Z,96.31
2022-11-10T09:50:49.682Z,97.30
2022-11-10T09:53:39.174Z,96.72
2022-11-10T09:56:33.847Z,96.86
2022-11-10T09:59:26.955Z,94.83
2022-11-10T10:02:23.980Z,94.59
2022-11-10T10:05:34.945Z,96.35
2022-11-10T10:08:34.372Z,95.82
2022-11-10T10:11:33.999Z,97.91
2022-11-10T10:14:36.027Z,95.65
2022-11-10T10:17:28.033Z,95.82
2022-11-10T10:20:20.863Z,97.83
2022-11-10T10:23:24.160Z,96.94
2022-11-10T10:26:19.901Z,94.86
2022-11-10T10:29:12.007Z,94.87
2022-11-10T10:32:01.167Z,93.23
2022-11-10T10:34:48.090Z,93.26
2022-11-10T10:37:40.827Z,94.00
2022-11-10T10:40:27.629Z,93.44
2022-11-10T10:43:14.623Z,93.19
2022-11-10T10:46:08.483Z,93.31
2022-11-10T10:49:27.547Z,91.38
2022-11-10T10:52:17.276Z,89.99
2022-11-10T10:55:09.716Z,91.33
2022-11-10T10:58:00.477Z,93.34
2022-11-10T11:00:48.578Z,91.41
2022-11-10T11:03:45.473Z,92.44
2022-11-10T11:06:33.429Z,92.22
2022-11-10T11:09:25.004Z,89.66
2022-11-10T11:12:13.574Z,90.45
2022-11-10T11:15:15.108Z,90.29
2022-11-10T11:18:03.636Z,88.01
2022-11-10T11:20:58.878Z,89.31
2022-11-10T11:24:00.489Z,87.80
2022-11-10T11:26:57.138Z,89.99
2022-11-10T11:29:56.501Z,89.39
2022-11-10T11:33:16.877Z,86.26
2022-11-10T11:36:09.646Z,85.75
2022-11-10T11:39:04.657Z,86.58
2022-11-10T11:42:00.138Z,86.10
2022-11-10T11:45:00.513Z,85.48
2022-11-10T11:48:01.691Z,85.82
2022-11-10T11:50:55.386Z,86.60
2022-11-10T11:54:00.004Z,84.34
2022-11-10T11:56:48.659Z,85.90
2022-11-10T11:59:57.484Z,84.19
2022-11-10T12:03:29.050Z,82.06
2022-11-10T12:06:29.319Z,83.17
2022-11-10T12:09:28.279Z,81.97
2022-11-10T12:12:41.549Z,82.96
2022-11-10T12:15:36.250Z,80.90
2022-11-10T12:18:32.346Z,82.92
2022-11-10T12:21:39.714Z,82.08
2022-11-10T12:24:48.732Z,82.89
2022-11-10T12:27:38.488Z,82.92
2022-11-10T12:30:25.017Z,83.51
2022-11-10T12:33:21.981Z,83.29
2022-11-10T12:36:18.550Z,84.06
2022-11-10T12:39:14.210Z,83.70
2022-11-10T12:42:05.733Z,85.02
2022-11-10T12:45:03.629Z,85.07
2022-11-10T12:47:50.528Z,86.14
2022-11-10T12:50:46.487Z,86.76
2022-11-10T12:53:36.641Z,85.80
2022-11-10T12:56:29.384Z,84.87
2022-11-10T12:59:33.837Z,87.02
2022-11-10T13:02:27.955Z,86.37
2022-11-10T13:05:41.009Z,86.37
2022-11-10T13:08:32.998Z,85.60
2022-11-10T13:11:26.463Z,86.15
2022-11-10T13:14:26.096Z,87.46
2022-11-10T13:17:53.200Z,88.16
2022-11-10T13:21:00.792Z,88.14
2022-11-10T13:24:23.251Z,88.28
2022-11-10T13:27:13.243Z,90.26
2022-11-10T13:30:01.253Z,88.40
2022-11-10T13:32:49.421Z,87.83
2022-11-10T13:35:55.627Z,88.53
2022-11-10T13:38:44.377Z,87.33
2022-11-10T13:41:34.828Z,85.87
2022-11-10T13:44:25.562Z,86.94
2022-11-10T13:47:36.319Z,87.04
2022-11-10T13:50:36.757Z,88.70
2022-11-10T13:53:31.455Z,90.13
2022-11-10T13:56:33.927Z,88.80
2022-11-10T13:59:22.750Z,89.08
2022-11-10T14:02:46.596Z,89.01
2022-11-10T14:06:07.431Z,88.33
2022-11-10T14:08:55.506Z,90.25
2022-11-10T14:11:49.767Z,88.83
2022-11-10T14:14:47.549Z,88.25
2022-11-10T14:17:37.675Z,88.69
2022-11-10T14:20:31.330Z,88.27
2022-11-10T14:23:25.519Z,87.71
2022-11-10T14:26:21.616Z,87.78
2022-11-10T14:29:36.025Z,87.95
2022-11-10T14:32:24.984Z,89.02
2022-11-10T14:35:22.572Z,87.82
2022-11-10T14:38:21.303Z,87.59
2022-11-10T14:41:19.227Z,87.69
2022-11-10T14:44:13.049Z,86.36
2022-11-10T14:47:15.884Z,86.71
2022-11-10T14:50:08.253Z,86.41
2022-11-10T14:52:59.577Z,87.02
2022-11-10T14:55:51.917Z,88.04
2022-11-10T14:58:44.252Z,87.01
2022-11-10T15:01:35.361Z,87.89
2022-11-10T15:04:27.704Z,87.63
2022-11-10T15:07:14.806Z,87.22
2022-11-10T15:10:07.905Z,87.76
2022-11-10T15:13:06.222Z,89.15
2022-11-10T15:15:54.700Z,90.21
2022-11-10T15:18:41.431Z,90.21
2022-11-10T15:21:34.147Z,90.32
2022-11-10T15:24:22.375Z,90.60
2022-11-10T15:27:15.288Z,89.17
2022-11-10T15:30:04.802Z,90.44
2022-11-10T15:32:54.106Z,90.95
2022-11-10T15:35:43.742Z,91.94
2022-11-10T15:38:33.008Z,92.57
2022-11-10T15:41:29.298Z,92.83
2022-11-10T15:44:18.981Z,93.53
2022-11-10T15:47:13.383Z,94.78
2022-11-10T15:50:05.175Z,95.61
2022-11-10T15:52:51.910Z,96.01
2022-11-10T15:55:38.360Z,96.99
2022-11-10T15:58:25.418Z,97.80
2022-11-10T16:01:13.397Z,98.54
2022-11-10T16:04:02.862Z,99.30
2022-11-10T16:06:50.620Z,99.69
2022-11-10T16:09:36.857Z,100.00
2022-11-10T16:12:23.927Z,100.00
2022-11-10T16:15:17.451Z,100.00
2022-11-10T16:18:04.415Z,100.00
2022-11-10T16:20:52.204Z,100.00
2022-11-10T16:23:39.863Z,100.00
2022-11-10T16:26:36.526Z,100.00
2022-11-10T16:29:23.354Z,100.00
2022-11-10T16:32:14.193Z,100.00
2022-11-10T16:35:00.583Z,100.00
2022-11-10T16:37:46.840Z,100.00
2022-11-10T16:40:34.861Z,100.00
2022-11-10T16:43:21.690Z,100.00
2022-11-10T16:46:19.315Z,100.00
2022-11-10T16:49:16.251Z,99.83
2022-11-10T16:52:09.117Z,100.00
2022-11-10T16:54:55.593Z,100.00
2022-11-10T16:57:43.444Z,100.00
2022-11-10T17:00:30.100Z,100.00
2022-11-10T17:03:21.656Z,100.00
2022-11-10T17:06:08.010Z,100.00
2022-11-10T17:08:59.194Z,100.00
2022-11-10T17:11:45.885Z,100.00
2022-11-10T17:14:34.415Z,100.00
2022-11-10T17:17:24.657Z,100.00
2022-11-10T17:20:18.225Z,100.00
2022-11-10T17:23:05.479Z,100.00
2022-11-10T17:25:54.150Z,100.00
2022-11-10T17:28:40.603Z,100.00
2022-11-10T17:31:28.608Z,100.00
2022-11-10T17:34:15.489Z,100.00
2022-11-10T17:37:01.966Z,100.00
2022-11-10T17:39:48.541Z,100.00
2022-11-10T17:42:34.856Z,100.00
2022-11-10T17:45:24.036Z,100.00
2022-11-10T17:48:12.061Z,99.75
2022-11-10T17:50:58.766Z,99.99
2022-11-10T17:53:45.372Z,100.00
2022-11-10T17:56:31.925Z,99.89
2022-11-10T17:59:18.341Z,100.00
2022-11-10T18:02:05.239Z,100.00
2022-11-10T18:04:53.333Z,100.00
2022-11-10T18:07:40.163Z,100.00
2022-11-10T18:10:28.569Z,100.00
2022-11-10T18:13:15.253Z,100.00
2022-11-10T18:16:01.661Z,100.00
2022-11-10T18:18:48.206Z,100.00
2022-11-10T18:21:35.801Z,100.00
2022-11-10T18:24:22.767Z,100.00
2022-11-10T18:27:09.566Z,100.00
2022-11-10T18:29:56.131Z,100.00
2022-11-10T18:32:42.507Z,100.00
2022-11-10T18:35:28.952Z,100.00
2022-11-10T18:38:16.944Z,100.00
2022-11-10T18:41:26.656Z,100.00
2022-11-10T18:44:13.056Z,100.00
2022-11-10T18:46:59.884Z,99.86
2022-11-10T18:49:46.144Z,100.00
2022-11-10T18:52:32.670Z,100.00
2022-11-10T18:55:20.544Z,100.00
2022-11-10T18:58:07.079Z,100.00
2022-11-10T19:00:53.991Z,100.00
2022-11-10T19:03:42.708Z,100.00
2022-11-10T19:06:29.567Z,100.00
2022-11-10T19:09:16.371Z,100.00
2022-11-10T19:12:04.690Z,100.00
2022-11-10T19:14:51.276Z,100.00
2022-11-10T19:17:37.548Z,100.00
2022-11-10T19:20:26.397Z,100.00
2022-11-10T19:23:12.958Z,100.00
2022-11-10T19:26:02.397Z,100.00
2022-11-10T19:28:50.535Z,100.00
2022-11-10T19:31:37.000Z,100.00
2022-11-10T19:34:23.491Z,100.00
2022-11-10T19:37:09.975Z,100.00
2022-11-10T19:39:56.509Z,100.00
2022-11-10T19:42:43.049Z,100.00
2022-11-10T19:45:30.975Z,100.00
2022-11-10T19:48:17.258Z,100.00
2022-11-10T19:51:05.492Z,100.00
2022-11-10T19:53:58.459Z,100.00
2022-11-10T19:56:44.943Z,100.00
2022-11-10T19:59:32.551Z,100.00
2022-11-10T20:02:20.976Z,100.00
2022-11-10T20:05:13.823Z,100.00
2022-11-10T20:08:12.158Z,100.00
2022-11-10T20:11:01.364Z,100.00
2022-11-10T20:13:51.940Z,100.00
2022-11-10T20:16:40.700Z,100.00
2022-11-10T20:19:28.583Z,100.00
2022-11-10T20:22:15.457Z,100.00
2022-11-10T20:25:02.138Z,100.00
2022-11-10T20:27:48.609Z,100.00
2022-11-10T20:30:36.389Z,100.00
2022-11-10T20:33:22.965Z,100.00
2022-11-10T20:36:18.919Z,100.00
2022-11-10T20:39:07.001Z,100.00
2022-11-10T20:41:53.851Z,100.00
2022-11-10T20:44:40.236Z,100.00
2022-11-10T20:47:27.258Z,100.00
2022-11-10T20:50:18.188Z,100.00
2022-11-10T20:53:08.676Z,100.00
2022-11-10T20:56:00.824Z,100.00
2022-11-10T20:58:47.682Z,100.00
2022-11-10T21:01:34.266Z,100.00
2022-11-10T21:04:21.361Z,100.00
2022-11-10T21:07:07.950Z,100.00
2022-11-10T21:09:55.936Z,100.00
2022-11-10T21:12:51.943Z,100.00
2022-11-10T21:15:40.304Z,100.00
2022-11-10T21:18:29.511Z,100.00
2022-11-10T21:21:22.288Z,100.00
2022-11-10T21:24:10.028Z,100.00
2022-11-10T21:26:58.626Z,100.00
2022-11-10T21:29:45.299Z,100.00
2022-11-10T21:32:31.803Z,100.00
2022-11-10T21:35:18.879Z,100.00
2022-11-10T21:38:06.051Z,100.00
2022-11-10T21:40:53.004Z,100.00
2022-11-10T21:43:41.037Z,100.00
2022-11-10T21:46:27.644Z,100.00
2022-11-10T21:49:14.388Z,100.00
2022-11-10T21:52:00.802Z,100.00
2022-11-10T21:54:47.779Z,100.00
2022-11-10T21:57:34.314Z,100.00
2022-11-10T22:00:22.754Z,100.00
2022-11-10T22:03:09.135Z,100.00
2022-11-10T22:05:55.689Z,100.00
2022-11-10T22:08:43.546Z,100.00
2022-11-10T22:11:46.480Z,100.00
2022-11-10T22:14:50.533Z,100.00
2022-11-10T22:17:56.499Z,100.00
2022-11-10T22:20:42.813Z,100.00
2022-11-10T22:23:46.615Z,100.00
2022-11-10T22:26:33.321Z,100.00
2022-11-10T22:29:21.357Z,100.00
2022-11-10T22:32:08.717Z,100.00
2022-11-10T22:34:57.204Z,100.00
2022-11-10T22:37:43.931Z,100.00
2022-11-10T22:40:48.674Z,100.00
2022-11-10T22:43:54.126Z,100.00
2022-11-10T22:46:42.772Z,100.00
2022-11-10T22:49:29.154Z,100.00
2022-11-10T22:52:16.879Z,100.00
2022-11-10T22:55:03.205Z,100.00
2022-11-10T22:57:53.097Z,100.00
2022-11-10T23:00:39.971Z,100.00
2022-11-10T23:03:26.991Z,100.00
2022-11-10T23:06:14.240Z,100.00
2022-11-10T23:09:02.916Z,100.00
2022-11-10T23:11:49.436Z,100.00
2022-11-10T23:14:36.313Z,100.00
2022-11-10T23:17:23.189Z,100.00
2022-11-10T23:20:11.225Z,100.00
2022-11-10T23:22:58.365Z,100.00
2022-11-10T23:25:56.553Z,100.00
2022-11-10T23:28:43.523Z,100.00
2022-11-10T23:31:30.528Z,100.00
2022-11-10T23:34:17.053Z,100.00
2022-11-10T23:37:03.523Z,100.00
2022-11-10T23:39:50.111Z,100.00
2022-11-10T23:42:38.162Z,100.00
2022-11-10T23:45:29.783Z,100.00
2022-11-10T23:48:24.152Z,100.00
2022-11-10T23:51:14.996Z,100.00
2022-11-10T23:54:01.895Z,100.00
2022-11-10T23:56:48.682Z,100.00
2022-11-10T23:59:37.026Z,100.00
